Time;durP1;ratioP1;P1;durP2;ratioP2;P2;SDS_P1;SDS_P2;PMS_P1;PMS_P2;Temp;Humidity;BMP_temperature;BMP_pressure;BME280_temperature;BME280_humidity;BME280_pressure;Samples;Min_cycle;Max_cycle;Signal;HPM_P1;HPM_P2
2022/05/11 00:01:26;;;;;;;9.93;8.93;;;;;;;16.79;97.73;98226.69;5098480;28;20215;-73
2022/05/11 00:03:53;;;;;;;9.77;8.87;;;;;;;16.74;97.67;98224.47;5099868;28;20207;-73
2022/05/11 00:06:20;;;;;;;9.30;8.50;;;;;;;16.65;98.15;98219.97;5101972;28;20210;-74
2022/05/11 00:08:46;;;;;;;10.33;9.33;;;;;;;16.59;98.73;98220.53;5098287;28;20223;-74
2022/05/11 00:11:14;;;;;;;10.33;9.40;;;;;;;16.50;99.12;98225.88;5098522;28;20219;-73
2022/05/11 00:13:42;;;;;;;9.87;8.87;;;;;;;16.45;99.91;98217.47;5099262;28;20246;-74
2022/05/11 00:16:09;;;;;;;10.53;9.50;;;;;;;16.37;100.00;98218.13;5101918;28;20210;-73
2022/05/11 00:18:35;;;;;;;9.97;9.07;;;;;;;16.31;100.00;98221.34;5098509;28;20218;-73
2022/05/11 00:21:03;;;;;;;9.97;8.97;;;;;;;16.23;100.00;98217.69;5098159;28;20255;-74
2022/05/11 00:23:29;;;;;;;10.67;9.67;;;;;;;16.16;100.00;98214.72;5096965;28;20221;-74
2022/05/11 00:25:56;;;;;;;10.23;9.23;;;;;;;16.10;100.00;98217.13;5102043;28;20237;-74
2022/05/11 00:28:22;;;;;;;10.90;9.80;;;;;;;16.06;100.00;98210.34;5097926;28;20559;-73
2022/05/11 00:30:50;;;;;;;10.70;9.70;;;;;;;16.01;100.00;98212.59;5097569;28;20215;-73
2022/05/11 00:33:18;;;;;;;11.17;10.03;;;;;;;15.95;100.00;98207.00;5098250;28;20261;-73
2022/05/11 00:35:47;;;;;;;10.53;9.53;;;;;;;15.91;100.00;98200.22;5101846;28;20206;-74
2022/05/11 00:38:14;;;;;;;11.10;9.77;;;;;;;15.88;100.00;98208.53;5098907;28;20593;-74
2022/05/11 00:40:42;;;;;;;11.60;10.40;;;;;;;15.85;100.00;98211.44;5110763;28;20218;-74
2022/05/11 00:43:09;;;;;;;10.53;9.53;;;;;;;15.87;100.00;98212.13;5110728;28;21320;-74
2022/05/11 00:45:38;;;;;;;10.57;9.47;;;;;;;15.86;100.00;98207.78;5107832;28;20218;-73
2022/05/11 00:50:53;;;;;;;9.90;8.90;;;;;;;15.75;100.00;98206.09;5108483;28;20246;-73
2022/05/11 00:53:21;;;;;;;10.70;9.70;;;;;;;15.71;100.00;98203.84;5109003;28;20240;-73
2022/05/11 00:55:50;;;;;;;9.93;9.03;;;;;;;15.70;100.00;98196.84;5109671;28;20264;-73
2022/05/11 00:58:21;;;;;;;10.07;9.07;;;;;;;15.66;100.00;98190.06;5110388;28;20241;-73
2022/05/11 01:00:48;;;;;;;8.93;8.07;;;;;;;15.59;100.00;98181.78;5110253;28;20671;-73
2022/05/11 01:03:18;;;;;;;9.20;8.40;;;;;;;15.61;100.00;98192.28;5108430;28;20590;-73
2022/05/11 01:05:46;;;;;;;10.10;9.10;;;;;;;15.62;100.00;98183.31;5103575;28;20213;-73
2022/05/11 01:08:15;;;;;;;9.67;8.77;;;;;;;15.64;100.00;98192.03;5110559;28;20210;-73
2022/05/11 01:10:42;;;;;;;10.27;9.27;;;;;;;15.69;100.00;98195.13;5110230;28;20206;-74
2022/05/11 01:13:12;;;;;;;9.77;8.87;;;;;;;15.65;100.00;98189.22;5107553;28;20249;-74
2022/05/11 01:15:39;;;;;;;9.53;8.63;;;;;;;15.59;100.00;98195.09;5108852;28;20217;-74
2022/05/11 01:18:08;;;;;;;9.00;8.13;;;;;;;15.55;100.00;98187.50;5110459;28;20217;-74
2022/05/11 01:20:37;;;;;;;10.37;9.17;;;;;;;15.53;100.00;98194.81;5110464;28;20214;-74
2022/05/11 01:23:11;;;;;;;9.17;8.27;;;;;;;15.50;100.00;98179.06;5107489;28;20215;-74
2022/05/11 01:25:39;;;;;;;9.20;8.27;;;;;;;15.46;100.00;98188.34;5110542;28;20220;-74
2022/05/11 01:28:11;;;;;;;10.23;9.23;;;;;;;15.41;100.00;98188.72;5108069;28;20214;-74
2022/05/11 01:30:38;;;;;;;9.40;8.50;;;;;;;15.35;100.00;98193.75;5109161;28;20268;-73
2022/05/11 01:33:07;;;;;;;9.47;8.57;;;;;;;15.18;100.00;98194.34;5111119;28;20253;-73
2022/05/11 01:35:44;;;;;;;9.33;8.43;;;;;;;15.08;100.00;98188.09;5110865;28;20225;-74
2022/05/11 01:38:24;;;;;;;9.77;8.87;;;;;;;15.03;100.00;98191.19;5110869;28;20213;-74
2022/05/11 01:40:52;;;;;;;9.80;8.80;;;;;;;15.01;100.00;98194.94;5107606;28;20224;-74
2022/05/11 01:43:21;;;;;;;9.57;8.60;;;;;;;14.93;100.00;98192.09;5114894;28;20230;-74
2022/05/11 01:45:48;;;;;;;9.13;8.23;;;;;;;14.88;100.00;98186.31;5114848;28;20210;-74
2022/05/11 01:48:15;;;;;;;8.70;7.90;;;;;;;14.83;100.00;98185.88;5112697;28;20563;-75
2022/05/11 01:50:42;;;;;;;9.13;8.30;;;;;;;14.79;100.00;98185.28;5114745;28;20206;-73
2022/05/11 01:53:09;;;;;;;9.60;8.70;;;;;;;14.75;100.00;98183.03;5114519;28;20237;-75
2022/05/11 01:55:36;;;;;;;9.70;8.70;;;;;;;14.75;100.00;98185.69;5114486;28;20221;-73
2022/05/11 01:58:06;;;;;;;10.10;9.03;;;;;;;14.67;100.00;98183.66;5112798;28;20218;-73
2022/05/11 02:00:33;;;;;;;10.87;9.77;;;;;;;14.66;100.00;98182.00;5112679;28;20206;-73
2022/05/11 02:02:59;;;;;;;11.33;10.23;;;;;;;14.63;100.00;98186.72;5114651;28;20213;-73
2022/05/11 02:08:10;;;;;;;14.27;12.57;;;;;;;14.60;100.00;98179.03;5101395;28;20263;-73
2022/05/11 02:10:37;;;;;;;15.80;13.30;;;;;;;14.62;100.00;98179.72;5104372;28;20214;-73
2022/05/11 02:13:05;;;;;;;14.73;13.23;;;;;;;14.58;100.00;98186.25;5114287;28;20648;-73
2022/05/11 02:15:32;;;;;;;14.40;12.40;;;;;;;14.53;100.00;98183.16;5114039;28;20667;-73
2022/05/11 02:17:58;;;;;;;14.40;12.90;;;;;;;14.47;100.00;98186.31;5112507;28;20218;-73
2022/05/11 02:20:25;;;;;;;15.17;12.73;;;;;;;14.44;100.00;98182.13;5113034;28;20214;-73
2022/05/11 02:22:52;;;;;;;15.97;13.93;;;;;;;14.42;100.00;98178.72;5113410;28;20221;-73
2022/05/11 02:25:19;;;;;;;15.63;13.93;;;;;;;14.34;100.00;98175.03;5113021;28;20214;-73
2022/05/11 02:27:48;;;;;;;18.10;14.67;;;;;;;14.28;100.00;98180.84;5109279;28;20207;-73
2022/05/11 02:30:19;;;;;;;17.23;15.27;;;;;;;14.21;100.00;98182.34;5113349;28;20240;-73
2022/05/11 02:32:45;;;;;;;17.30;14.67;;;;;;;14.15;100.00;98181.00;5112507;28;20229;-73
2022/05/11 02:35:15;;;;;;;16.00;13.97;;;;;;;14.11;100.00;98179.56;5113593;28;20580;-73
2022/05/11 02:37:45;;;;;;;16.13;14.20;;;;;;;14.08;100.00;98179.84;5111724;28;20263;-73
2022/05/11 02:40:13;;;;;;;16.50;14.13;;;;;;;14.07;100.00;98179.94;5101887;28;20218;-73
2022/05/11 02:42:40;;;;;;;15.67;13.83;;;;;;;14.05;100.00;98177.41;5112772;28;20240;-73
2022/05/11 02:45:08;;;;;;;15.30;13.70;;;;;;;14.02;100.00;98179.47;5113003;28;20210;-73
2022/05/11 02:47:36;;;;;;;14.40;12.90;;;;;;;13.99;100.00;98174.44;5109836;28;20248;-73
2022/05/11 02:50:05;;;;;;;14.07;12.57;;;;;;;13.94;100.00;98173.97;5112940;28;20214;-73
2022/05/11 02:52:32;;;;;;;13.83;12.27;;;;;;;13.91;100.00;98172.41;5111970;28;20678;-74
2022/05/11 02:54:58;;;;;;;13.93;12.20;;;;;;;13.89;100.00;98178.81;5112337;28;20221;-73
2022/05/11 02:57:25;;;;;;;13.77;12.30;;;;;;;13.85;100.00;98177.34;5109575;28;20210;-73
2022/05/11 02:59:52;;;;;;;14.37;12.87;;;;;;;13.84;100.00;98175.66;5111197;28;20217;-73
2022/05/11 03:02:19;;;;;;;13.13;11.83;;;;;;;13.83;100.00;98174.00;5112370;28;20218;-73
2022/05/11 03:04:47;;;;;;;15.03;13.23;;;;;;;13.82;100.00;98177.63;5112158;28;20295;-73
2022/05/11 03:07:13;;;;;;;14.03;12.53;;;;;;;13.79;100.00;98172.53;5109345;28;20688;-73
2022/05/11 03:09:40;;;;;;;16.00;13.50;;;;;;;13.76;100.00;98173.63;5112312;28;20214;-73
2022/05/11 03:12:07;;;;;;;14.47;12.90;;;;;;;13.76;100.00;98167.50;5112372;28;20221;-73
2022/05/11 03:14:34;;;;;;;15.20;13.53;;;;;;;13.77;100.00;98170.03;5112098;28;20229;-73
2022/05/11 03:17:02;;;;;;;15.10;13.33;;;;;;;13.79;100.00;98161.91;5109545;28;20206;-73
2022/05/11 03:19:29;;;;;;;15.17;13.37;;;;;;;13.81;100.00;98170.63;5100282;28;20213;-73
2022/05/11 03:21:57;;;;;;;14.00;12.60;;;;;;;13.83;100.00;98163.34;5111948;28;20679;-73
2022/05/11 03:24:24;;;;;;;14.67;13.13;;;;;;;13.83;100.00;98169.53;5112194;28;20252;-72
2022/05/11 03:26:50;;;;;;;14.70;13.10;;;;;;;13.88;100.00;98169.97;5105554;28;20206;-73
2022/05/11 03:29:19;;;;;;;15.93;13.17;;;;;;;13.89;100.00;98166.38;5112718;28;20210;-73
2022/05/11 03:34:36;;;;;;;14.90;12.83;;;;;;;13.84;100.00;98165.03;5113023;28;20205;-72
2022/05/11 03:34:37;;;;;;;14.73;12.97;;;;;;;13.81;100.00;98167.97;5110733;28;20242;-73
2022/05/11 03:37:06;;;;;;;13.27;11.97;;;;;;;13.80;100.00;98166.25;5099727;28;20230;-74
2022/05/11 03:39:33;;;;;;;15.23;12.37;;;;;;;13.81;100.00;98165.31;5098831;28;20227;-72
2022/05/11 03:42:00;;;;;;;15.77;12.73;;;;;;;13.78;100.00;98154.91;5099024;28;20206;-73
2022/05/11 03:44:27;;;;;;;13.97;12.27;;;;;;;13.81;100.00;98160.00;5102175;28;20238;-72
2022/05/11 03:46:53;;;;;;;13.10;11.80;;;;;;;13.91;100.00;98158.25;5099482;28;20688;-73
2022/05/11 03:49:21;;;;;;;12.97;11.37;;;;;;;13.91;100.00;98159.13;5098644;28;20696;-73
2022/05/11 03:51:48;;;;;;;12.43;11.13;;;;;;;13.92;100.00;98157.28;5096914;28;20211;-72
2022/05/11 03:54:16;;;;;;;12.13;10.80;;;;;;;13.92;100.00;98160.78;5101986;28;20265;-73
2022/05/11 03:56:42;;;;;;;13.93;11.17;;;;;;;13.97;100.00;98158.59;5099789;28;20206;-72
2022/05/11 03:59:09;;;;;;;12.57;11.27;;;;;;;14.06;100.00;98157.84;5098712;28;20218;-72
2022/05/11 04:01:35;;;;;;;13.60;10.77;;;;;;;14.08;100.00;98152.41;5098873;28;20221;-73
2022/05/11 04:04:02;;;;;;;13.80;12.07;;;;;;;14.11;100.00;98146.84;5100953;28;20678;-73
2022/05/11 04:06:29;;;;;;;12.87;10.87;;;;;;;14.15;100.00;98154.44;5100203;28;20214;-73
2022/05/11 04:08:55;;;;;;;12.57;11.03;;;;;;;14.18;100.00;98148.00;5098407;28;20654;-74
2022/05/11 04:11:23;;;;;;;12.17;10.47;;;;;;;14.19;100.00;98150.56;5098599;28;20233;-73
2022/05/11 04:13:50;;;;;;;11.27;10.03;;;;;;;14.22;100.00;98158.28;5101009;28;20230;-73
2022/05/11 04:16:16;;;;;;;11.47;10.27;;;;;;;14.26;100.00;98153.56;5100355;28;20221;-73
2022/05/11 04:18:43;;;;;;;10.53;9.53;;;;;;;14.29;100.00;98155.97;5096460;28;20211;-73
2022/05/11 04:21:10;;;;;;;11.67;10.47;;;;;;;14.34;100.00;98165.25;5098437;28;20216;-74
2022/05/11 04:23:36;;;;;;;10.37;9.30;;;;;;;14.37;100.00;98158.81;5100619;28;20616;-73
2022/05/11 04:26:04;;;;;;;9.93;8.97;;;;;;;14.43;100.00;98158.31;5100708;28;20210;-73
2022/05/11 04:28:32;;;;;;;11.37;9.73;;;;;;;14.50;100.00;98159.47;5107911;28;20202;-73
2022/05/11 04:31:01;;;;;;;11.27;9.33;;;;;;;14.56;100.00;98154.50;5111973;28;20214;-73
2022/05/11 04:33:27;;;;;;;10.00;9.00;;;;;;;14.62;100.00;98155.78;5109544;28;20238;-73
2022/05/11 04:35:54;;;;;;;10.77;9.30;;;;;;;14.67;100.00;98158.91;5112109;28;20220;-73
2022/05/11 04:38:20;;;;;;;10.53;9.13;;;;;;;14.72;100.00;98156.69;5111528;28;20690;-73
2022/05/11 04:40:47;;;;;;;9.70;8.73;;;;;;;14.76;100.00;98160.75;5111883;28;20214;-73
2022/05/11 04:43:14;;;;;;;9.53;8.57;;;;;;;14.83;100.00;98161.91;5107587;28;20234;-73
2022/05/11 04:45:44;;;;;;;10.00;9.00;;;;;;;14.86;100.00;98162.50;5108445;28;20215;-73
2022/05/11 04:48:11;;;;;;;9.90;8.90;;;;;;;14.93;100.00;98163.69;5112056;28;20210;-74
2022/05/11 04:50:38;;;;;;;9.20;8.30;;;;;;;15.02;100.00;98167.38;5111811;28;20218;-74
2022/05/11 04:53:06;;;;;;;9.60;8.60;;;;;;;15.06;100.00;98158.97;5109711;28;20210;-74
2022/05/11 04:55:32;;;;;;;9.60;8.03;;;;;;;15.10;100.00;98159.56;5111567;28;20209;-73
2022/05/11 04:57:59;;;;;;;9.03;8.20;;;;;;;15.13;100.00;98164.59;5111492;28;20217;-73
2022/05/11 05:00:26;;;;;;;9.43;8.40;;;;;;;15.18;100.00;98175.69;5111515;28;20264;-74
2022/05/11 05:02:54;;;;;;;10.87;8.73;;;;;;;15.21;100.00;98164.81;5109517;28;20221;-74
2022/05/11 05:05:20;;;;;;;9.40;8.43;;;;;;;15.29;100.00;98168.47;5108497;28;20209;-74
2022/05/11 05:07:47;;;;;;;10.03;8.50;;;;;;;15.35;100.00;98160.00;5111410;28;20237;-74
2022/05/11 05:10:15;;;;;;;9.90;8.30;;;;;;;15.41;100.00;98163.91;5109667;28;20214;-73
2022/05/11 05:12:43;;;;;;;10.37;8.60;;;;;;;15.54;100.00;98167.19;5109586;28;20211;-73
2022/05/11 05:15:11;;;;;;;9.97;7.47;;;;;;;15.68;100.00;98172.13;5109105;28;20707;-73
2022/05/11 05:17:38;;;;;;;8.20;7.33;;;;;;;15.80;100.00;98171.88;5115463;28;20210;-73
2022/05/11 05:20:08;;;;;;;8.70;7.80;;;;;;;16.01;100.00;98177.94;5115387;28;20214;-73
2022/05/11 05:22:34;;;;;;;8.40;7.50;;;;;;;16.23;99.42;98175.03;5113205;28;20616;-73
2022/05/11 05:25:01;;;;;;;9.77;8.23;;;;;;;16.73;96.42;98172.06;5115365;28;20210;-75
2022/05/11 05:27:28;;;;;;;8.27;7.10;;;;;;;17.60;91.01;98187.69;5109455;28;20211;-75
2022/05/11 05:32:41;;;;;;;8.17;6.77;;;;;;;19.23;81.38;98172.91;5103326;28;20217;-73
2022/05/11 05:35:11;;;;;;;8.07;7.27;;;;;;;19.85;77.55;98169.81;5100056;28;20242;-74
2022/05/11 05:37:38;;;;;;;8.10;6.77;;;;;;;20.38;74.30;98174.84;5101588;28;20226;-74
2022/05/11 05:40:06;;;;;;;8.10;6.60;;;;;;;20.95;72.16;98172.03;5101543;28;20264;-74
2022/05/11 05:42:33;;;;;;;6.23;5.63;;;;;;;21.54;69.64;98179.66;5104894;28;20210;-74
2022/05/11 05:45:00;;;;;;;7.83;6.70;;;;;;;21.78;65.09;98176.91;5102215;28;20221;-74
2022/05/11 05:47:26;;;;;;;6.70;6.10;;;;;;;22.15;64.14;98173.50;5113758;28;20218;-73
2022/05/11 05:49:53;;;;;;;7.17;6.47;;;;;;;22.63;60.99;98170.53;5114111;28;20217;-73
2022/05/11 05:52:22;;;;;;;6.83;6.13;;;;;;;23.19;59.33;98167.34;5112061;28;20210;-73
2022/05/11 05:54:50;;;;;;;6.40;5.80;;;;;;;23.68;56.72;98172.03;5113852;28;20237;-73
2022/05/11 05:57:17;;;;;;;6.33;5.73;;;;;;;23.95;56.32;98173.25;5113694;28;20214;-73
2022/05/11 05:59:45;;;;;;;6.80;5.93;;;;;;;24.40;54.87;98173.81;5113678;28;20291;-73
2022/05/11 06:02:13;;;;;;;6.47;5.30;;;;;;;24.87;52.73;98175.97;5109863;28;20603;-73
2022/05/11 06:04:41;;;;;;;6.30;5.60;;;;;;;25.20;50.99;98171.66;5101654;28;20260;-73
2022/05/11 06:07:07;;;;;;;7.37;5.83;;;;;;;25.50;50.57;98179.41;5113738;28;20210;-73
2022/05/11 06:09:35;;;;;;;6.30;5.70;;;;;;;25.83;49.44;98179.59;5113599;28;20221;-73
2022/05/11 06:12:02;;;;;;;6.57;5.90;;;;;;;26.11;48.70;98178.53;5107379;28;20673;-74
2022/05/11 06:14:28;;;;;;;7.47;5.97;;;;;;;26.36;47.88;98182.38;5112632;28;20240;-74
2022/05/11 06:16:55;;;;;;;7.60;5.47;;;;;;;26.53;47.06;98178.25;5113165;28;20218;-75
2022/05/11 06:19:21;;;;;;;6.13;5.50;;;;;;;26.69;46.97;98177.06;5112959;28;20210;-74
2022/05/11 06:21:48;;;;;;;6.43;5.73;;;;;;;26.68;46.54;98180.78;5110896;28;20210;-73
2022/05/11 06:24:15;;;;;;;8.17;6.13;;;;;;;26.81;45.58;98181.66;5112881;28;20587;-73
2022/05/11 06:26:42;;;;;;;8.70;5.97;;;;;;;26.83;45.62;98179.56;5107962;28;20203;-74
2022/05/11 06:29:09;;;;;;;7.80;6.07;;;;;;;26.79;45.34;98183.75;5095291;28;20215;-73
2022/05/11 06:31:35;;;;;;;6.57;5.67;;;;;;;26.74;45.52;98180.81;5102437;28;20225;-73
2022/05/11 06:34:02;;;;;;;8.20;5.90;;;;;;;26.56;46.03;98191.41;5100101;28;20234;-74
2022/05/11 06:36:29;;;;;;;7.30;5.57;;;;;;;25.95;47.53;98186.13;5098739;28;20215;-73
2022/05/11 06:38:56;;;;;;;6.30;5.53;;;;;;;25.57;48.39;98180.28;5098708;28;20298;-73
2022/05/11 06:41:25;;;;;;;5.80;5.30;;;;;;;25.37;50.15;98173.88;5101698;28;20596;-73
2022/05/11 06:43:54;;;;;;;5.80;5.20;;;;;;;24.99;51.35;98177.94;5099836;28;20707;-73
2022/05/11 06:46:21;;;;;;;5.77;5.17;;;;;;;24.10;53.48;98176.75;5098811;28;20246;-74
2022/05/11 06:48:48;;;;;;;7.20;5.10;;;;;;;23.15;57.85;98179.47;5098683;28;20207;-74
2022/05/11 06:51:16;;;;;;;5.80;4.90;;;;;;;22.51;60.88;98178.19;5101786;28;20301;-74
2022/05/11 06:59:22;;;;;;;5.40;4.90;;;;;;;21.66;66.21;98174.72;5100523;28;20259;-73
2022/05/11 07:01:49;;;;;;;5.87;5.03;;;;;;;21.55;66.60;98165.19;5100487;28;20210;-74
2022/05/11 07:04:15;;;;;;;6.37;4.90;;;;;;;21.51;67.50;98173.78;5111232;28;20206;-73
2022/05/11 07:06:42;;;;;;;5.17;4.77;;;;;;;21.56;67.85;98172.22;5110873;28;20667;-75
2022/05/11 07:09:09;;;;;;;6.10;5.50;;;;;;;21.61;68.18;98174.41;5108047;28;20225;-74
2022/05/11 07:14:21;;;;;;;5.63;5.03;;;;;;;21.70;67.24;98163.47;5111234;28;20236;-73
2022/05/11 07:16:47;;;;;;;5.27;4.77;;;;;;;21.77;65.48;98169.81;5109969;28;20222;-74
2022/05/11 07:19:14;;;;;;;16.00;5.33;;;;;;;21.85;66.33;98161.72;5109249;28;20214;-73
2022/05/11 07:21:40;;;;;;;5.30;4.80;;;;;;;21.89;66.16;98157.66;5109172;28;20214;-74
2022/05/11 07:24:07;;;;;;;5.30;4.80;;;;;;;21.99;66.26;98160.13;5110812;28;20210;-74
2022/05/11 07:26:33;;;;;;;4.87;4.47;;;;;;;22.04;66.14;98155.91;5106728;28;20214;-75
2022/05/11 07:29:00;;;;;;;5.27;4.77;;;;;;;22.19;67.54;98162.19;5106829;28;20209;-73
2022/05/11 07:31:28;;;;;;;7.37;5.03;;;;;;;22.33;66.69;98147.13;5110248;28;20210;-74
2022/05/11 07:33:54;;;;;;;5.27;4.87;;;;;;;22.50;66.70;98148.75;5110014;28;20235;-74
2022/05/11 07:36:21;;;;;;;5.30;4.80;;;;;;;22.57;65.43;98158.63;5109628;28;20210;-73
2022/05/11 07:38:47;;;;;;;5.70;4.40;;;;;;;22.70;64.08;98152.59;5102895;28;20211;-74
2022/05/11 07:41:14;;;;;;;4.90;4.50;;;;;;;22.81;63.78;98144.91;5095054;28;20393;-73
2022/05/11 07:43:40;;;;;;;5.03;4.53;;;;;;;22.90;62.85;98148.38;5094242;28;20726;-72
2022/05/11 07:46:07;;;;;;;5.10;4.60;;;;;;;22.96;61.55;98156.59;5097873;28;20579;-71
2022/05/11 07:48:34;;;;;;;4.80;4.40;;;;;;;22.96;59.49;98153.03;5092667;28;20211;-73
2022/05/11 07:51:01;;;;;;;4.93;4.53;;;;;;;23.04;59.94;98150.28;5094053;28;20207;-72
2022/05/11 07:53:28;;;;;;;4.57;4.20;;;;;;;23.14;59.58;98151.69;5094920;28;20233;-73
2022/05/11 08:01:18;;;;;;;7.50;3.80;;;;;;;23.45;55.81;98143.47;5110141;28;20749;-73
2022/05/11 08:03:46;;;;;;;4.13;3.30;;;;;;;23.48;54.72;98143.09;5108681;28;20695;-73
2022/05/11 08:06:16;;;;;;;5.30;3.90;;;;;;;23.53;54.82;98144.22;5095715;28;20626;-73
2022/05/11 08:08:42;;;;;;;5.83;3.50;;;;;;;23.65;55.14;98140.00;5110079;28;20218;-72
2022/05/11 08:11:09;;;;;;;3.63;3.10;;;;;;;23.70;52.96;98134.91;5109995;28;20218;-73
2022/05/11 08:13:36;;;;;;;4.20;3.17;;;;;;;23.75;51.58;98135.16;5106459;28;20582;-72
2022/05/11 08:16:02;;;;;;;3.93;3.53;;;;;;;23.75;52.50;98128.94;5110161;28;20244;-74
2022/05/11 08:18:29;;;;;;;3.70;3.37;;;;;;;23.79;52.58;98131.09;5110242;28;20210;-73
2022/05/11 08:20:57;;;;;;;3.30;3.00;;;;;;;23.90;51.75;98122.50;5109123;28;20587;-72
2022/05/11 08:23:25;;;;;;;3.73;3.43;;;;;;;23.97;49.24;98139.66;5109099;28;20214;-71
2022/05/11 08:25:54;;;;;;;4.13;3.67;;;;;;;23.95;50.39;98130.88;5109579;28;20218;-72
2022/05/11 08:28:23;;;;;;;5.27;3.50;;;;;;;23.97;50.29;98131.56;5107727;28;20214;-72
2022/05/11 08:33:38;;;;;;;3.53;2.73;;;;;;;24.04;49.03;98128.91;5095279;28;20259;-72
2022/05/11 08:36:08;;;;;;;3.80;3.43;;;;;;;24.05;48.97;98119.78;5094031;28;20277;-72
2022/05/11 08:38:38;;;;;;;3.40;3.10;;;;;;;24.08;47.51;98120.22;5103400;28;20249;-72
2022/05/11 08:41:11;;;;;;;4.00;3.30;;;;;;;24.22;48.50;98122.06;5094968;28;20305;-72
2022/05/11 08:43:38;;;;;;;3.70;3.40;;;;;;;24.38;50.76;98121.81;5095839;28;20241;-73
2022/05/11 08:46:23;;;;;;;3.73;3.43;;;;;;;24.48;49.60;98119.63;5109332;28;20225;-72
2022/05/11 08:48:59;;;;;;;3.40;3.10;;;;;;;24.71;50.02;98120.31;5108373;28;20299;-72
2022/05/11 08:51:32;;;;;;;3.00;2.80;;;;;;;24.74;47.37;98119.91;5109449;28;20679;-72
2022/05/11 08:54:12;;;;;;;3.73;3.10;;;;;;;24.78;45.56;98113.09;5110380;28;20221;-71
2022/05/11 08:56:40;;;;;;;3.63;3.03;;;;;;;24.81;47.19;98112.66;5108875;28;20240;-71
2022/05/11 08:59:11;;;;;;;5.13;3.13;;;;;;;24.85;47.21;98116.66;5110344;28;20221;-72
2022/05/11 09:01:46;;;;;;;3.20;2.90;;;;;;;24.90;44.79;98116.94;5110335;28;20582;-71
2022/05/11 09:04:16;;;;;;;3.30;3.00;;;;;;;24.98;46.69;98108.66;5109429;28;20296;-71
2022/05/11 09:06:44;;;;;;;3.57;3.30;;;;;;;25.07;47.37;98106.63;5109327;28;20209;-72
2022/05/11 09:09:12;;;;;;;3.80;3.40;;;;;;;25.16;46.70;98100.03;5108786;28;20209;-72
2022/05/11 09:11:43;;;;;;;4.27;3.40;;;;;;;25.21;46.32;98098.44;5109237;28;20217;-71
2022/05/11 09:14:14;;;;;;;3.70;3.40;;;;;;;25.16;46.88;98095.47;5110101;28;20746;-72
2022/05/11 09:16:44;;;;;;;3.80;3.50;;;;;;;25.16;47.10;98105.44;5109289;28;20291;-72
2022/05/11 09:19:12;;;;;;;4.20;3.83;;;;;;;25.28;47.61;98098.47;5109596;28;20579;-72
2022/05/11 09:21:41;;;;;;;3.90;3.60;;;;;;;25.34;45.92;98103.09;5110249;28;20218;-72
2022/05/11 09:24:21;;;;;;;4.17;3.87;;;;;;;25.43;47.04;98097.31;5110290;28;20924;-72
2022/05/11 09:27:02;;;;;;;3.97;3.33;;;;;;;25.55;45.32;98101.13;5105412;28;20282;-74
2022/05/11 09:29:35;;;;;;;4.00;3.70;;;;;;;25.60;47.74;98109.50;5092655;28;20210;-72
2022/05/11 09:32:27;;;;;;;4.33;3.93;;;;;;;25.64;48.05;98099.09;5093591;28;20215;-72
2022/05/11 09:34:54;;;;;;;3.97;3.67;;;;;;;25.78;46.62;98096.25;5094039;28;20233;-72
2022/05/11 09:37:29;;;;;;;4.17;3.87;;;;;;;25.85;45.03;98102.53;5108772;28;20221;-73
2022/05/11 09:40:09;;;;;;;4.40;4.00;;;;;;;25.81;46.83;98098.56;5095988;28;20210;-72
2022/05/11 09:42:36;;;;;;;4.40;4.00;;;;;;;25.79;46.57;98087.09;5107590;28;20708;-72
2022/05/11 09:45:04;;;;;;;4.27;3.97;;;;;;;25.83;44.24;98096.50;5108242;28;20210;-71
2022/05/11 09:47:33;;;;;;;4.40;4.10;;;;;;;25.85;44.30;98090.88;5107593;28;20297;-72
2022/05/11 09:50:17;;;;;;;5.13;4.00;;;;;;;25.92;44.74;98086.34;5105766;28;20267;-72
2022/05/11 09:52:44;;;;;;;4.63;3.60;;;;;;;26.03;47.57;98083.88;5097728;28;20209;-72
2022/05/11 09:55:19;;;;;;;4.35;4.05;;;;;;;26.15;45.74;98082.25;5109226;28;20324;-72
2022/05/11 09:57:54;;;;;;;4.60;4.10;;;;;;;26.41;46.35;98082.31;5108371;28;20589;-73
2022/05/11 10:00:26;;;;;;;4.90;4.38;;;;;;;26.48;46.01;98076.88;5095401;28;20210;-73
2022/05/11 10:02:57;;;;;;;4.67;4.27;;;;;;;26.52;46.23;98068.13;5109392;28;20680;-73
2022/05/11 10:05:26;;;;;;;4.72;4.15;;;;;;;26.69;47.14;98074.84;5113034;28;20225;-74
2022/05/11 10:07:58;;;;;;;4.82;4.43;;;;;;;26.86;45.35;98051.69;5099571;28;20671;-71
2022/05/11 10:10:31;;;;;;;4.63;4.23;;;;;;;26.88;45.99;98060.44;5097528;28;20215;-71
2022/05/11 10:13:10;;;;;;;5.90;4.63;;;;;;;26.97;46.04;98056.47;5097252;28;20696;-69
2022/05/11 10:24:21;;;;;;;5.15;4.72;;;;;;;27.66;44.04;98050.28;5099972;28;20217;-69
2022/05/11 10:27:00;;;;;;;5.13;4.43;;;;;;;27.67;43.12;98037.50;5112347;28;20671;-70
2022/05/11 10:29:44;;;;;;;4.60;4.20;;;;;;;27.78;42.71;98039.59;5109553;28;20254;-71
2022/05/11 10:32:19;;;;;;;5.10;4.70;;;;;;;27.87;41.79;98033.69;5114328;28;20213;-70
2022/05/11 10:34:56;;;;;;;4.97;4.35;;;;;;;27.94;41.57;98030.94;5114195;28;20676;-71
2022/05/11 10:37:32;;;;;;;5.72;4.60;;;;;;;28.17;42.92;98029.31;5113679;28;20217;-70
2022/05/11 10:40:17;;;;;;;5.25;4.75;;;;;;;28.18;42.23;98019.31;5113906;28;20358;-72
2022/05/11 10:42:51;;;;;;;4.95;4.40;;;;;;;28.11;41.61;98021.22;5113944;28;20246;-70
2022/05/11 10:45:20;;;;;;;4.50;4.15;;;;;;;28.14;41.20;98015.34;5098997;28;20218;-71
2022/05/11 10:48:05;;;;;;;4.20;3.80;;;;;;;28.26;41.18;98006.25;5096869;28;20218;-71
2022/05/11 10:50:40;;;;;;;5.03;4.30;;;;;;;28.37;40.21;98008.28;5096659;28;20210;-71
2022/05/11 10:53:30;;;;;;;4.70;4.18;;;;;;;28.39;40.82;98008.09;5099292;28;20698;-69
2022/05/11 10:56:10;;;;;;;3.92;3.63;;;;;;;28.49;41.30;98003.00;5099953;28;20242;-70
2022/05/11 10:59:00;;;;;;;5.28;3.97;;;;;;;28.60;40.40;98007.69;5111426;28;20210;-69
2022/05/11 11:01:34;;;;;;;4.05;3.75;;;;;;;28.60;38.92;97996.81;5098743;28;20406;-69
2022/05/11 11:04:31;;;;;;;4.45;4.05;;;;;;;28.64;39.65;97992.59;5111236;28;20223;-70
2022/05/11 11:07:18;;;;;;;4.00;3.75;;;;;;;28.74;38.91;97988.31;5110809;28;20218;-70
2022/05/11 11:10:04;;;;;;;5.13;3.60;;;;;;;28.54;38.49;97986.81;5113075;28;20566;-69
2022/05/11 11:12:51;;;;;;;4.95;3.85;;;;;;;28.33;39.77;97979.03;5108798;28;20214;-69
2022/05/11 11:15:23;;;;;;;4.20;3.90;;;;;;;28.21;39.92;97986.22;5099692;28;20214;-69
2022/05/11 11:17:50;;;;;;;4.72;4.32;;;;;;;28.30;39.21;97977.59;5107880;28;20222;-69
2022/05/11 11:20:19;;;;;;;4.15;3.70;;;;;;;28.36;39.98;97984.88;5110496;28;20213;-69
2022/05/11 11:23:06;;;;;;;3.75;3.45;;;;;;;28.41;39.52;97974.19;5107524;28;20241;-69
2022/05/11 11:25:45;;;;;;;3.95;3.65;;;;;;;28.36;37.81;97967.72;5109432;28;20224;-69
2022/05/11 11:28:14;;;;;;;3.47;3.25;;;;;;;28.45;38.79;97971.84;5107722;28;20233;-70
2022/05/11 11:31:04;;;;;;;4.47;3.78;;;;;;;28.46;39.18;97965.34;5107456;28;20223;-70
2022/05/11 11:33:32;;;;;;;4.05;3.40;;;;;;;28.48;36.63;97965.94;5091731;28;20210;-70
2022/05/11 11:36:00;;;;;;;3.85;3.55;;;;;;;28.39;37.57;97964.59;5092104;28;20234;-69
2022/05/11 11:38:30;;;;;;;3.90;3.60;;;;;;;28.36;38.11;97965.84;5111509;28;20222;-69
2022/05/11 11:41:12;;;;;;;4.28;3.80;;;;;;;28.25;39.72;97955.66;5112751;28;20221;-69
2022/05/11 11:43:45;;;;;;;5.03;3.80;;;;;;;27.99;37.43;97955.03;5112746;28;20245;-68
2022/05/11 11:46:28;;;;;;;3.75;3.45;;;;;;;27.94;38.37;97958.41;5112229;28;20272;-68
2022/05/11 11:49:03;;;;;;;4.65;3.53;;;;;;;27.85;38.48;97948.03;5111135;28;20209;-70
2022/05/11 11:51:51;;;;;;;3.72;3.42;;;;;;;28.06;37.68;97944.97;5112447;28;20786;-70
2022/05/11 11:54:27;;;;;;;3.60;3.20;;;;;;;28.28;37.53;97932.66;5111801;28;20210;-70
2022/05/11 11:56:55;;;;;;;3.65;3.25;;;;;;;28.43;35.86;97938.63;5112641;28;20233;-71
2022/05/11 11:59:49;;;;;;;3.90;3.50;;;;;;;28.43;37.96;97941.34;5112471;28;20214;-71
2022/05/11 12:02:22;;;;;;;3.50;3.20;;;;;;;28.41;37.24;97932.56;5064640;28;20217;-71
2022/05/11 12:05:00;;;;;;;3.47;3.20;;;;;;;28.29;36.67;97931.59;5112455;28;20563;-71
2022/05/11 12:16:00;;;;;;;4.20;3.30;;;;;;;28.45;36.03;97922.91;5095129;28;20241;-70
2022/05/11 12:18:30;;;;;;;4.38;3.50;;;;;;;28.47;35.32;97918.06;5112000;28;20218;-70
2022/05/11 12:20:57;;;;;;;3.90;3.50;;;;;;;28.45;37.39;97917.47;5111915;28;20249;-70